Transylvania, Louisiana
Current Conditions -  °F | °C
As of 10:53 PM on Wednesday 26 Nov 2014 (Local Time) from KTVR Reporting Station
Clear Clear  
Wind Chill: 47°   Ceiling: Unl
Heat Index: 49°   Visibility: 10mi
Dew Point: 35°   Wind: 5mph
Humidity: 59%   Direction: 320°NW
Pressure: 30.25"   Gusts: NA
Location:  32.68°N, 91.18°W
Report Text: KTVR 270453Z AUTO 32004KT 10SM CLR 09/02 A3025 RMK AO2 SLP251 T00940017
Loading
Personal Weather Stations






























Interactive Weather Map New forecast layout! Learn more

10-Day Weather Forecast

Advertisements
Track Severe Weather on mobile